createdAt,value
2022-12-29T00:00:33.851Z,4.00
2022-12-29T00:03:03.653Z,3.90
2022-12-29T00:05:32.070Z,4.10
2022-12-29T00:08:00.424Z,4.00
2022-12-29T00:10:28.650Z,3.90
2022-12-29T00:13:14.501Z,3.90
2022-12-29T00:15:42.751Z,3.90
2022-12-29T00:18:12.436Z,3.90
2022-12-29T00:20:58.428Z,4.00
2022-12-29T00:23:43.996Z,3.90
2022-12-29T00:26:33.504Z,4.00
2022-12-29T00:29:19.855Z,4.10
2022-12-29T00:32:05.664Z,4.20
2022-12-29T00:34:52.967Z,4.20
2022-12-29T00:37:42.287Z,4.20
2022-12-29T00:40:28.528Z,4.10
2022-12-29T00:43:14.083Z,4.10
2022-12-29T00:45:42.958Z,4.20
2022-12-29T00:48:11.414Z,4.20
2022-12-29T00:50:40.380Z,4.20
2022-12-29T00:53:08.627Z,4.10
2022-12-29T00:55:39.070Z,4.00
2022-12-29T00:58:07.377Z,3.90
2022-12-29T01:00:35.836Z,3.80
2022-12-29T01:03:04.203Z,3.80
2022-12-29T01:05:32.540Z,3.80
2022-12-29T01:08:02.115Z,3.70
2022-12-29T01:10:29.711Z,3.70
2022-12-29T01:12:58.167Z,3.70
2022-12-29T01:15:26.349Z,3.80
2022-12-29T01:17:54.582Z,3.80
2022-12-29T01:20:22.834Z,3.70
2022-12-29T01:22:51.143Z,3.80
2022-12-29T01:25:23.117Z,3.70
2022-12-29T01:27:51.287Z,3.70
2022-12-29T01:30:19.547Z,3.60
2022-12-29T01:32:47.778Z,3.50
2022-12-29T01:35:16.030Z,3.50
2022-12-29T01:37:46.449Z,3.40
2022-12-29T01:40:15.065Z,3.40
2022-12-29T01:42:44.821Z,3.30
2022-12-29T01:45:15.628Z,3.40
2022-12-29T01:47:46.830Z,3.50
2022-12-29T01:50:21.262Z,3.60
2022-12-29T01:52:56.275Z,3.70
2022-12-29T01:55:25.981Z,3.80
2022-12-29T01:57:58.665Z,3.80
2022-12-29T02:00:26.946Z,3.80
2022-12-29T02:02:56.189Z,3.70
2022-12-29T02:05:29.479Z,3.60
2022-12-29T02:07:57.802Z,3.40
2022-12-29T02:10:28.438Z,3.50
2022-12-29T02:12:59.721Z,3.50
2022-12-29T02:15:37.845Z,3.60
2022-12-29T02:18:21.582Z,3.40
2022-12-29T02:21:23.712Z,3.30
2022-12-29T02:24:22.537Z,3.10
2022-12-29T02:27:15.497Z,2.90
2022-12-29T02:30:09.056Z,2.80
2022-12-29T02:32:51.483Z,2.60
2022-12-29T02:35:29.288Z,2.80
2022-12-29T02:38:05.572Z,3.10
2022-12-29T02:40:41.413Z,3.10
2022-12-29T02:43:19.874Z,3.10
2022-12-29T02:45:54.773Z,3.10
2022-12-29T02:48:31.348Z,3.20
2022-12-29T02:51:03.444Z,3.10
2022-12-29T02:54:10.006Z,3.00
2022-12-29T02:56:39.772Z,3.00
2022-12-29T02:59:09.404Z,3.30
2022-12-29T03:02:06.641Z,3.20
2022-12-29T03:04:46.977Z,3.40
2022-12-29T03:07:23.745Z,3.00
2022-12-29T03:10:00.762Z,3.00
2022-12-29T03:12:50.857Z,3.50
2022-12-29T03:19:04.425Z,3.40
2022-12-29T03:21:56.692Z,3.60
2022-12-29T03:24:31.553Z,3.70
2022-12-29T03:27:03.338Z,3.60
2022-12-29T03:29:42.120Z,3.70
2022-12-29T03:32:14.049Z,3.80
2022-12-29T03:34:43.538Z,3.90
2022-12-29T03:37:17.049Z,4.00
2022-12-29T03:39:48.094Z,4.00
2022-12-29T03:42:21.529Z,4.00
2022-12-29T03:44:50.024Z,4.10
2022-12-29T03:47:20.612Z,4.20
2022-12-29T03:49:50.003Z,4.20
2022-12-29T03:52:21.190Z,4.20
2022-12-29T03:54:50.182Z,4.20
2022-12-29T03:57:18.580Z,4.20
2022-12-29T04:00:00.968Z,4.30
2022-12-29T04:02:32.652Z,4.30
2022-12-29T04:05:00.977Z,4.40
2022-12-29T04:07:30.852Z,4.50
2022-12-29T04:09:59.631Z,4.50
2022-12-29T04:12:29.863Z,4.60
2022-12-29T04:14:58.681Z,4.50
2022-12-29T04:17:26.826Z,4.50
2022-12-29T04:20:16.630Z,4.50
2022-12-29T04:22:46.717Z,4.50
2022-12-29T04:25:15.449Z,4.50
2022-12-29T04:27:44.360Z,4.50
2022-12-29T04:30:51.192Z,4.40
2022-12-29T04:33:23.724Z,4.50
2022-12-29T04:35:53.228Z,4.60
2022-12-29T04:38:24.617Z,4.60
2022-12-29T04:40:53.651Z,4.70
2022-12-29T04:43:24.546Z,4.80
2022-12-29T04:46:13.199Z,4.80
2022-12-29T04:48:50.383Z,4.80
2022-12-29T04:51:49.944Z,4.80
2022-12-29T04:54:22.175Z,4.80
2022-12-29T04:57:16.994Z,4.80
2022-12-29T04:59:51.024Z,4.80
2022-12-29T05:02:19.834Z,4.80
2022-12-29T05:04:51.505Z,4.80
2022-12-29T05:07:21.319Z,4.70
2022-12-29T05:09:52.633Z,4.70
2022-12-29T05:12:20.911Z,4.70
2022-12-29T05:15:01.349Z,4.80
2022-12-29T05:17:29.885Z,4.80
2022-12-29T05:19:58.456Z,4.90
2022-12-29T05:22:27.220Z,5.00
2022-12-29T05:24:58.396Z,5.00
2022-12-29T05:27:26.852Z,5.00
2022-12-29T05:30:11.915Z,5.00
2022-12-29T05:32:40.638Z,5.00
2022-12-29T05:35:10.636Z,5.10
2022-12-29T05:37:39.416Z,5.10
2022-12-29T05:40:10.856Z,5.00
2022-12-29T05:42:39.003Z,5.00
2022-12-29T05:45:18.911Z,4.90
2022-12-29T05:48:15.092Z,5.00
2022-12-29T05:51:06.259Z,4.90
2022-12-29T05:53:42.670Z,4.90
2022-12-29T05:56:12.869Z,5.00
2022-12-29T05:58:41.881Z,4.90
2022-12-29T06:01:10.349Z,5.10
2022-12-29T06:03:44.495Z,5.20
2022-12-29T06:06:16.371Z,5.10
2022-12-29T06:08:44.753Z,5.00
2022-12-29T06:11:14.582Z,5.00
2022-12-29T06:13:50.122Z,5.00
2022-12-29T06:16:18.545Z,4.90
2022-12-29T06:18:47.014Z,4.90
2022-12-29T06:21:15.258Z,4.90
2022-12-29T06:23:43.535Z,5.00
2022-12-29T06:26:12.080Z,5.00
2022-12-29T06:28:41.606Z,5.00
2022-12-29T06:31:12.294Z,5.00
2022-12-29T06:33:41.034Z,4.90
2022-12-29T06:36:10.224Z,4.80
2022-12-29T06:38:38.568Z,4.80
2022-12-29T06:41:07.286Z,4.80
2022-12-29T06:43:56.154Z,4.70
2022-12-29T06:46:31.731Z,4.70
2022-12-29T06:49:01.085Z,4.50
2022-12-29T06:51:29.294Z,4.60
2022-12-29T06:53:57.456Z,4.70
2022-12-29T06:56:25.707Z,4.70
2022-12-29T06:58:55.205Z,4.90
2022-12-29T07:01:23.452Z,4.80
2022-12-29T07:03:51.688Z,4.80
2022-12-29T07:06:19.966Z,4.90
2022-12-29T07:08:48.109Z,4.90
2022-12-29T07:11:16.399Z,4.90
2022-12-29T07:13:45.424Z,4.90
2022-12-29T07:16:15.180Z,4.90
2022-12-29T07:18:43.386Z,4.90
2022-12-29T07:21:12.695Z,5.00
2022-12-29T07:23:40.931Z,5.00
2022-12-29T07:26:11.719Z,5.00
2022-12-29T07:28:40.093Z,4.90
2022-12-29T07:31:11.779Z,4.90
2022-12-29T07:33:41.453Z,5.00
2022-12-29T07:36:09.955Z,5.10
2022-12-29T07:38:38.262Z,5.10
2022-12-29T07:41:06.612Z,5.10
2022-12-29T07:43:34.876Z,5.20
2022-12-29T07:46:53.921Z,5.30
2022-12-29T07:49:24.599Z,5.50
2022-12-29T07:51:52.752Z,5.50
2022-12-29T07:54:21.294Z,5.60
2022-12-29T07:56:49.524Z,5.70
2022-12-29T07:59:17.806Z,5.80
2022-12-29T08:01:46.127Z,5.80
2022-12-29T08:04:14.491Z,6.00
2022-12-29T08:06:44.116Z,6.20
2022-12-29T08:09:17.981Z,6.20
2022-12-29T08:11:50.185Z,6.20
2022-12-29T08:14:19.419Z,6.30
2022-12-29T08:16:47.706Z,6.40
2022-12-29T08:19:16.221Z,6.40
2022-12-29T08:21:45.840Z,6.50
2022-12-29T08:24:14.088Z,6.50
2022-12-29T08:26:42.360Z,6.60
2022-12-29T08:29:10.818Z,6.70
2022-12-29T08:31:39.055Z,6.50
2022-12-29T08:34:07.465Z,6.40
2022-12-29T08:36:35.816Z,6.40
2022-12-29T08:39:05.572Z,6.50
2022-12-29T08:41:33.848Z,6.50
2022-12-29T08:44:02.172Z,6.50
2022-12-29T08:46:30.516Z,6.40
2022-12-29T08:48:58.851Z,6.50
2022-12-29T08:51:27.153Z,6.60
2022-12-29T08:53:55.786Z,6.90
2022-12-29T08:56:25.728Z,7.00
2022-12-29T08:58:57.731Z,7.20
2022-12-29T09:01:26.999Z,7.40
2022-12-29T09:06:45.088Z,7.50
2022-12-29T09:09:14.273Z,7.40
2022-12-29T09:11:44.611Z,7.30
2022-12-29T09:14:12.935Z,7.30
2022-12-29T09:16:55.511Z,7.50
2022-12-29T09:19:23.848Z,7.50
2022-12-29T09:21:52.508Z,7.40
2022-12-29T09:24:20.809Z,7.40
2022-12-29T09:26:50.493Z,7.50
2022-12-29T09:29:18.896Z,7.60
2022-12-29T09:31:47.145Z,7.70
2022-12-29T09:34:16.092Z,7.80
2022-12-29T09:36:44.323Z,8.00
2022-12-29T09:39:12.704Z,7.90
2022-12-29T09:41:45.387Z,8.00
2022-12-29T09:44:23.036Z,8.00
2022-12-29T09:46:53.852Z,8.00
2022-12-29T09:49:29.876Z,7.90
2022-12-29T09:52:05.738Z,8.00
2022-12-29T09:54:42.367Z,8.00
2022-12-29T09:57:20.095Z,8.20
2022-12-29T09:59:52.889Z,8.50
2022-12-29T10:02:31.363Z,8.70
2022-12-29T10:05:00.134Z,8.70
2022-12-29T10:07:38.585Z,8.60
2022-12-29T10:10:22.949Z,8.60
2022-12-29T10:13:02.773Z,8.60
2022-12-29T10:15:45.477Z,8.50
2022-12-29T10:18:39.414Z,8.50
2022-12-29T10:21:16.270Z,8.60
2022-12-29T10:23:48.270Z,8.70
2022-12-29T10:26:19.293Z,8.70
2022-12-29T10:28:53.357Z,8.70
2022-12-29T10:31:25.232Z,8.80
2022-12-29T10:33:58.528Z,8.80
2022-12-29T10:36:32.806Z,8.90
2022-12-29T10:39:08.210Z,9.00
2022-12-29T10:41:41.380Z,9.00
2022-12-29T10:44:13.972Z,9.20
2022-12-29T10:46:45.343Z,9.20
2022-12-29T10:49:21.754Z,9.20
2022-12-29T10:51:53.114Z,9.20
2022-12-29T10:54:25.700Z,9.30
2022-12-29T10:56:58.459Z,9.40
2022-12-29T10:59:31.151Z,9.40
2022-12-29T11:02:18.239Z,9.60
2022-12-29T11:04:54.232Z,9.60
2022-12-29T11:07:26.960Z,9.80
2022-12-29T11:09:56.234Z,9.90
2022-12-29T11:12:27.799Z,9.70
2022-12-29T11:15:14.881Z,9.90
2022-12-29T11:17:48.909Z,10.10
2022-12-29T11:20:30.547Z,10.10
2022-12-29T11:22:58.915Z,10.30
2022-12-29T11:25:27.426Z,10.70
2022-12-29T11:28:01.502Z,10.80
2022-12-29T11:30:31.983Z,11.00
2022-12-29T11:33:06.271Z,11.20
2022-12-29T11:35:38.059Z,11.40
2022-12-29T11:38:18.261Z,11.50
2022-12-29T11:40:46.470Z,11.80
2022-12-29T11:43:25.217Z,12.10
2022-12-29T11:45:57.599Z,11.90
2022-12-29T11:48:31.287Z,12.20
2022-12-29T11:51:01.277Z,12.60
2022-12-29T11:53:34.752Z,12.60
2022-12-29T11:56:07.000Z,12.50
2022-12-29T11:58:37.431Z,12.90
2022-12-29T12:01:09.277Z,12.70
2022-12-29T12:03:44.897Z,12.60
2022-12-29T12:06:18.996Z,12.70
2022-12-29T12:08:53.915Z,12.90
2022-12-29T12:11:25.938Z,12.60
2022-12-29T12:14:01.029Z,13.40
2022-12-29T12:16:43.442Z,13.30
2022-12-29T12:19:20.426Z,13.60
2022-12-29T12:21:54.232Z,13.40
2022-12-29T12:24:39.471Z,13.40
2022-12-29T12:27:14.969Z,13.40
2022-12-29T12:29:48.728Z,13.40
2022-12-29T12:32:22.155Z,13.40
2022-12-29T12:34:52.532Z,13.70
2022-12-29T12:37:53.603Z,13.50
2022-12-29T12:40:46.721Z,13.30
2022-12-29T12:43:41.969Z,13.30
2022-12-29T12:46:42.744Z,13.20
2022-12-29T12:49:36.794Z,13.30
2022-12-29T12:52:16.156Z,13.60
2022-12-29T12:55:03.141Z,13.90
2022-12-29T12:57:43.488Z,14.00
2022-12-29T13:00:14.707Z,14.20
2022-12-29T13:02:57.154Z,13.80
2022-12-29T13:05:40.091Z,14.00
2022-12-29T13:08:37.927Z,13.60
2022-12-29T13:11:19.446Z,13.20
2022-12-29T13:14:14.975Z,13.00
2022-12-29T13:16:50.737Z,12.80
2022-12-29T13:19:27.545Z,12.60
2022-12-29T13:22:07.284Z,12.50
2022-12-29T13:24:53.130Z,12.40
2022-12-29T13:27:36.898Z,12.30
2022-12-29T13:36:36.465Z,12.10
2022-12-29T13:39:10.258Z,12.00
2022-12-29T13:41:45.103Z,11.80
2022-12-29T13:44:43.888Z,11.80
2022-12-29T13:47:22.565Z,11.80
2022-12-29T13:49:52.195Z,11.70
2022-12-29T13:52:29.113Z,11.60
2022-12-29T13:55:03.202Z,11.40
2022-12-29T13:57:42.182Z,11.50
2022-12-29T14:00:19.358Z,11.40
2022-12-29T14:03:06.568Z,11.30
2022-12-29T14:05:35.063Z,11.30
2022-12-29T14:08:05.669Z,11.40
2022-12-29T14:10:37.037Z,11.30
2022-12-29T14:13:08.494Z,10.90
2022-12-29T14:15:42.301Z,10.70
2022-12-29T14:18:18.080Z,10.70
2022-12-29T14:20:55.119Z,10.60
2022-12-29T14:23:38.256Z,10.70
2022-12-29T14:26:37.332Z,10.60
2022-12-29T14:29:43.039Z,10.60
2022-12-29T14:32:42.986Z,10.50
2022-12-29T14:35:41.579Z,10.60
2022-12-29T14:38:25.319Z,10.70
2022-12-29T14:40:55.119Z,10.60
2022-12-29T14:43:27.437Z,10.70
2022-12-29T14:46:00.338Z,10.60
2022-12-29T14:48:45.645Z,10.60
2022-12-29T14:51:40.999Z,10.50
2022-12-29T14:54:42.674Z,10.30
2022-12-29T14:57:19.641Z,10.40
2022-12-29T14:59:49.476Z,10.40
2022-12-29T15:02:22.607Z,10.40
2022-12-29T15:04:53.709Z,10.30
2022-12-29T15:07:22.551Z,10.30
2022-12-29T15:09:58.622Z,10.20
2022-12-29T15:12:37.890Z,10.00
2022-12-29T15:15:21.400Z,9.90
2022-12-29T15:17:49.943Z,9.80
2022-12-29T15:20:26.307Z,9.70
2022-12-29T15:22:58.390Z,9.70
2022-12-29T15:25:28.593Z,9.70
2022-12-29T15:28:02.433Z,9.50
2022-12-29T15:30:31.138Z,9.40
2022-12-29T15:32:59.777Z,9.40
2022-12-29T15:35:35.461Z,9.50
2022-12-29T15:38:17.823Z,9.40
2022-12-29T15:40:47.359Z,9.20
2022-12-29T15:43:48.815Z,9.10
2022-12-29T15:46:17.345Z,9.00
2022-12-29T15:48:45.791Z,9.00
2022-12-29T15:51:22.131Z,9.00
2022-12-29T15:53:52.332Z,9.10
2022-12-29T15:56:20.732Z,9.00
2022-12-29T15:58:51.494Z,8.90
2022-12-29T16:01:21.687Z,8.80
2022-12-29T16:03:53.539Z,8.60
2022-12-29T16:06:33.014Z,8.80
2022-12-29T16:09:04.162Z,8.90
2022-12-29T16:11:36.831Z,8.80
2022-12-29T16:14:11.672Z,8.70
2022-12-29T16:16:43.298Z,8.80
2022-12-29T16:19:16.805Z,8.80
2022-12-29T16:21:48.273Z,8.80
2022-12-29T16:24:19.531Z,9.00
2022-12-29T16:27:01.528Z,8.90
2022-12-29T16:29:31.855Z,8.70
2022-12-29T16:32:04.171Z,8.70
2022-12-29T16:34:34.351Z,8.70
2022-12-29T16:37:11.426Z,8.80
2022-12-29T16:39:40.912Z,8.90
2022-12-29T16:42:38.316Z,8.80
2022-12-29T16:46:06.149Z,8.90
2022-12-29T16:48:36.849Z,8.90
2022-12-29T16:51:07.777Z,8.90
2022-12-29T16:53:41.280Z,8.90
2022-12-29T16:56:17.349Z,9.00
2022-12-29T16:58:49.396Z,8.80
2022-12-29T17:01:20.340Z,8.70
2022-12-29T17:03:54.229Z,8.70
2022-12-29T17:06:33.420Z,8.60
2022-12-29T17:09:04.422Z,8.60
2022-12-29T17:11:59.437Z,8.50
2022-12-29T17:14:47.538Z,8.50
2022-12-29T17:17:19.410Z,8.50
2022-12-29T17:19:51.546Z,8.50
2022-12-29T17:22:22.718Z,8.50
2022-12-29T17:24:52.408Z,8.50
2022-12-29T17:27:28.177Z,8.50
2022-12-29T17:29:59.953Z,8.50
2022-12-29T17:32:28.774Z,8.50
2022-12-29T17:34:57.013Z,8.50
2022-12-29T17:37:43.169Z,8.40
2022-12-29T17:40:17.456Z,8.60
2022-12-29T17:42:47.623Z,8.50
2022-12-29T17:45:18.377Z,8.40
2022-12-29T17:47:46.934Z,8.20
2022-12-29T17:50:17.796Z,8.20
2022-12-29T17:53:00.095Z,8.20
2022-12-29T17:55:37.314Z,8.30
2022-12-29T17:58:22.103Z,8.30
2022-12-29T18:00:52.360Z,8.30
2022-12-29T18:03:30.740Z,8.30
2022-12-29T18:06:00.108Z,8.20
2022-12-29T18:08:37.944Z,8.40
2022-12-29T18:11:25.282Z,8.30
2022-12-29T18:13:56.716Z,8.20
2022-12-29T18:16:38.599Z,8.10
2022-12-29T18:19:17.597Z,8.00
2022-12-29T18:21:53.413Z,7.90
2022-12-29T18:24:31.285Z,7.70
2022-12-29T18:27:22.527Z,7.50
2022-12-29T18:29:55.916Z,7.50
2022-12-29T18:32:29.212Z,7.30
2022-12-29T18:35:03.032Z,7.20
2022-12-29T18:37:31.625Z,7.10
2022-12-29T18:40:00.299Z,7.10
2022-12-29T18:42:29.711Z,7.00
2022-12-29T18:44:57.769Z,7.00
2022-12-29T18:47:25.888Z,6.90
2022-12-29T18:49:54.446Z,6.90
2022-12-29T18:52:22.679Z,7.00
2022-12-29T18:54:50.783Z,7.00
2022-12-29T18:57:18.913Z,7.10
2022-12-29T18:59:48.413Z,7.10
2022-12-29T19:02:18.323Z,7.20
2022-12-29T19:04:50.114Z,7.40
2022-12-29T19:07:21.062Z,7.30
2022-12-29T19:09:49.318Z,7.30
2022-12-29T19:12:18.461Z,7.40
2022-12-29T19:14:49.912Z,7.50
2022-12-29T19:17:18.045Z,7.40
2022-12-29T19:19:46.349Z,7.30
2022-12-29T19:22:14.603Z,7.40
2022-12-29T19:24:42.749Z,7.30
2022-12-29T19:27:10.868Z,7.30
2022-12-29T19:29:39.040Z,7.20
2022-12-29T19:32:08.498Z,7.20
2022-12-29T19:34:36.590Z,7.20
2022-12-29T19:37:05.190Z,7.30
2022-12-29T19:39:33.406Z,7.30
2022-12-29T19:42:05.303Z,7.40
2022-12-29T19:44:33.785Z,7.40
2022-12-29T19:47:01.928Z,7.30
2022-12-29T19:49:31.941Z,7.40
2022-12-29T19:52:00.111Z,7.20
2022-12-29T19:54:28.280Z,7.20
2022-12-29T19:56:56.395Z,7.20
2022-12-29T19:59:24.546Z,7.20
2022-12-29T20:01:52.894Z,7.20
2022-12-29T20:04:21.288Z,7.10
2022-12-29T20:06:50.706Z,7.10
2022-12-29T20:09:18.833Z,7.00
2022-12-29T20:11:46.878Z,7.00
2022-12-29T20:14:14.953Z,7.10
2022-12-29T20:17:08.966Z,7.00
2022-12-29T20:19:31.226Z,6.90
2022-12-29T20:22:00.851Z,6.90
2022-12-29T20:24:29.550Z,6.90
2022-12-29T20:26:59.078Z,7.00
2022-12-29T20:29:27.444Z,7.10
2022-12-29T20:31:55.654Z,7.00
2022-12-29T20:34:24.507Z,7.10
2022-12-29T20:36:52.592Z,7.20
2022-12-29T20:39:22.092Z,7.10
2022-12-29T20:41:50.428Z,6.90
2022-12-29T20:44:18.555Z,6.80
2022-12-29T20:46:46.697Z,6.80
2022-12-29T20:49:14.825Z,6.90
2022-12-29T20:52:05.808Z,7.00
2022-12-29T20:54:39.077Z,7.00
2022-12-29T20:57:08.155Z,6.80
2022-12-29T20:59:36.346Z,6.70
2022-12-29T21:02:04.779Z,6.60
2022-12-29T21:04:57.571Z,6.60
2022-12-29T21:07:21.256Z,6.50
2022-12-29T21:09:50.814Z,6.60
2022-12-29T21:12:18.908Z,6.50
2022-12-29T21:14:46.973Z,6.60
2022-12-29T21:17:15.048Z,6.90
2022-12-29T21:19:43.168Z,6.80
2022-12-29T21:22:11.258Z,6.90
2022-12-29T21:24:39.593Z,6.70
2022-12-29T21:27:09.181Z,6.80
2022-12-29T21:29:37.341Z,6.80
2022-12-29T21:32:07.087Z,6.70
2022-12-29T21:34:35.612Z,6.80
2022-12-29T21:37:03.799Z,6.90
2022-12-29T21:39:32.024Z,7.00
2022-12-29T21:42:01.547Z,7.00
2022-12-29T21:44:48.665Z,6.90
2022-12-29T21:47:16.903Z,7.00
2022-12-29T21:49:45.023Z,6.90
2022-12-29T21:52:13.282Z,6.90
2022-12-29T21:54:58.811Z,6.90
2022-12-29T21:57:44.287Z,6.70
2022-12-29T22:00:32.773Z,6.70
2022-12-29T22:03:22.964Z,6.70
2022-12-29T22:06:10.344Z,6.70
2022-12-29T22:08:56.618Z,6.90
2022-12-29T22:11:42.437Z,6.80
2022-12-29T22:14:10.913Z,6.80
2022-12-29T22:16:40.362Z,6.70
2022-12-29T22:19:10.610Z,6.70
2022-12-29T22:21:38.741Z,6.60
2022-12-29T22:24:08.642Z,6.60
2022-12-29T22:26:36.834Z,6.60
2022-12-29T22:29:05.018Z,6.50
2022-12-29T22:31:33.877Z,6.50
2022-12-29T22:34:05.231Z,6.60
2022-12-29T22:36:33.842Z,6.60
2022-12-29T22:39:01.904Z,6.60
2022-12-29T22:41:30.006Z,6.50
2022-12-29T22:43:58.097Z,6.50
2022-12-29T22:46:26.284Z,6.50
2022-12-29T22:48:54.486Z,6.60
2022-12-29T22:51:24.415Z,6.50
2022-12-29T22:53:53.193Z,6.60
2022-12-29T22:56:21.432Z,6.70
2022-12-29T22:58:50.095Z,6.80
2022-12-29T23:01:21.975Z,6.70
2022-12-29T23:03:50.585Z,6.70
2022-12-29T23:06:18.845Z,6.60
2022-12-29T23:08:48.223Z,6.70
2022-12-29T23:11:17.829Z,6.70
2022-12-29T23:13:46.142Z,6.80
2022-12-29T23:16:15.888Z,6.80
2022-12-29T23:18:44.543Z,6.80
2022-12-29T23:21:13.161Z,6.80
2022-12-29T23:23:55.525Z,6.80
2022-12-29T23:26:27.124Z,6.80
2022-12-29T23:28:59.937Z,7.00
2022-12-29T23:31:29.843Z,6.80
2022-12-29T23:33:58.301Z,6.90
2022-12-29T23:36:26.587Z,7.10
2022-12-29T23:38:54.700Z,6.90
2022-12-29T23:41:24.369Z,6.90
2022-12-29T23:43:52.522Z,6.90
2022-12-29T23:46:23.131Z,7.00
2022-12-29T23:48:52.112Z,7.00
2022-12-29T23:51:20.171Z,6.90
2022-12-29T23:53:49.171Z,7.00
2022-12-29T23:56:19.461Z,7.10
2022-12-29T23:58:49.488Z,7.10
